sensor_id;sensor_type;location;lat;lon;timestamp;temperature;humidity
38746;DHT22;24488;0.000;0.000;2023-04-24T00:02:03;22.70;40.10
38746;DHT22;24488;0.000;0.000;2023-04-24T00:04:29;22.70;40.10
38746;DHT22;24488;0.000;0.000;2023-04-24T00:06:55;22.70;39.60
38746;DHT22;24488;0.000;0.000;2023-04-24T00:09:22;22.60;40.00
38746;DHT22;24488;0.000;0.000;2023-04-24T00:11:48;22.70;40.10
38746;DHT22;24488;0.000;0.000;2023-04-24T00:14:13;22.60;40.00
38746;DHT22;24488;0.000;0.000;2023-04-24T00:16:39;22.70;40.60
38746;DHT22;24488;0.000;0.000;2023-04-24T00:19:05;22.60;39.50
38746;DHT22;24488;0.000;0.000;2023-04-24T00:21:31;22.60;40.00
38746;DHT22;24488;0.000;0.000;2023-04-24T00:23:57;22.60;40.00
38746;DHT22;24488;0.000;0.000;2023-04-24T00:26:23;22.70;40.10
38746;DHT22;24488;0.000;0.000;2023-04-24T00:28:49;22.60;39.50
38746;DHT22;24488;0.000;0.000;2023-04-24T00:31:14;22.60;40.00
38746;DHT22;24488;0.000;0.000;2023-04-24T00:33:40;22.60;40.00
38746;DHT22;24488;0.000;0.000;2023-04-24T00:36:06;22.60;40.00
38746;DHT22;24488;0.000;0.000;2023-04-24T00:38:32;22.60;39.50
38746;DHT22;24488;0.000;0.000;2023-04-24T00:40:58;22.60;40.00
38746;DHT22;24488;0.000;0.000;2023-04-24T00:43:23;22.60;40.00
38746;DHT22;24488;0.000;0.000;2023-04-24T00:45:49;22.60;40.00
38746;DHT22;24488;0.000;0.000;2023-04-24T00:48:15;22.60;39.60
38746;DHT22;24488;0.000;0.000;2023-04-24T00:50:41;22.50;40.00
38746;DHT22;24488;0.000;0.000;2023-04-24T00:53:07;22.60;40.00
38746;DHT22;24488;0.000;0.000;2023-04-24T00:55:32;22.60;40.00
38746;DHT22;24488;0.000;0.000;2023-04-24T00:57:58;22.50;39.50
38746;DHT22;24488;0.000;0.000;2023-04-24T01:00:24;22.60;40.10
38746;DHT22;24488;0.000;0.000;2023-04-24T01:02:50;22.50;40.00
38746;DHT22;24488;0.000;0.000;2023-04-24T01:05:17;22.50;40.00
38746;DHT22;24488;0.000;0.000;2023-04-24T01:07:43;22.50;39.60
38746;DHT22;24488;0.000;0.000;2023-04-24T01:10:11;22.50;40.10
38746;DHT22;24488;0.000;0.000;2023-04-24T01:12:37;22.50;40.10
38746;DHT22;24488;0.000;0.000;2023-04-24T01:15:03;22.10;39.90
38746;DHT22;24488;0.000;0.000;2023-04-24T01:17:29;22.50;39.60
38746;DHT22;24488;0.000;0.000;2023-04-24T01:19:55;22.60;40.10
38746;DHT22;24488;0.000;0.000;2023-04-24T01:22:22;22.50;40.00
38746;DHT22;24488;0.000;0.000;2023-04-24T01:24:47;22.50;40.00
38746;DHT22;24488;0.000;0.000;2023-04-24T01:27:14;22.50;39.60
38746;DHT22;24488;0.000;0.000;2023-04-24T01:29:40;22.50;40.10
38746;DHT22;24488;0.000;0.000;2023-04-24T01:32:06;22.50;40.00
38746;DHT22;24488;0.000;0.000;2023-04-24T01:34:32;22.50;40.00
38746;DHT22;24488;0.000;0.000;2023-04-24T01:36:58;22.50;39.70
38746;DHT22;24488;0.000;0.000;2023-04-24T01:39:23;22.50;40.10
38746;DHT22;24488;0.000;0.000;2023-04-24T01:41:54;22.50;40.10
38746;DHT22;24488;0.000;0.000;2023-04-24T01:44:20;22.50;40.10
38746;DHT22;24488;0.000;0.000;2023-04-24T01:46:46;22.50;39.70
38746;DHT22;24488;0.000;0.000;2023-04-24T01:49:11;22.40;40.10
38746;DHT22;24488;0.000;0.000;2023-04-24T01:51:37;22.50;40.10
38746;DHT22;24488;0.000;0.000;2023-04-24T01:54:03;22.40;40.10
38746;DHT22;24488;0.000;0.000;2023-04-24T01:56:28;22.40;40.10
38746;DHT22;24488;0.000;0.000;2023-04-24T01:58:54;22.40;39.60
38746;DHT22;24488;0.000;0.000;2023-04-24T02:01:20;22.40;40.10
38746;DHT22;24488;0.000;0.000;2023-04-24T02:03:46;22.40;40.10
38746;DHT22;24488;0.000;0.000;2023-04-24T02:06:11;22.50;40.10
38746;DHT22;24488;0.000;0.000;2023-04-24T02:08:37;22.40;39.60
38746;DHT22;24488;0.000;0.000;2023-04-24T02:11:03;22.40;40.10
38746;DHT22;24488;0.000;0.000;2023-04-24T02:13:28;22.40;40.10
38746;DHT22;24488;0.000;0.000;2023-04-24T02:15:54;22.40;40.10
38746;DHT22;24488;0.000;0.000;2023-04-24T02:18:19;22.40;39.60
38746;DHT22;24488;0.000;0.000;2023-04-24T02:20:45;22.40;39.60
38746;DHT22;24488;0.000;0.000;2023-04-24T02:23:11;22.40;40.10
38746;DHT22;24488;0.000;0.000;2023-04-24T02:25:38;22.40;40.10
38746;DHT22;24488;0.000;0.000;2023-04-24T02:28:04;22.40;39.70
38746;DHT22;24488;0.000;0.000;2023-04-24T02:30:29;22.40;40.10
38746;DHT22;24488;0.000;0.000;2023-04-24T02:32:55;22.40;40.10
38746;DHT22;24488;0.000;0.000;2023-04-24T02:35:21;22.40;40.10
38746;DHT22;24488;0.000;0.000;2023-04-24T02:37:47;22.40;39.70
38746;DHT22;24488;0.000;0.000;2023-04-24T02:40:12;22.40;40.20
38746;DHT22;24488;0.000;0.000;2023-04-24T02:42:38;22.40;40.10
38746;DHT22;24488;0.000;0.000;2023-04-24T02:45:03;22.30;40.10
38746;DHT22;24488;0.000;0.000;2023-04-24T02:47:30;22.40;39.70
38746;DHT22;24488;0.000;0.000;2023-04-24T02:49:55;22.30;40.10
38746;DHT22;24488;0.000;0.000;2023-04-24T02:52:21;22.40;40.20
38746;DHT22;24488;0.000;0.000;2023-04-24T02:54:47;22.30;40.00
38746;DHT22;24488;0.000;0.000;2023-04-24T02:57:12;22.40;39.50
38746;DHT22;24488;0.000;0.000;2023-04-24T02:59:38;22.50;40.00
38746;DHT22;24488;0.000;0.000;2023-04-24T03:02:03;22.50;39.90
38746;DHT22;24488;0.000;0.000;2023-04-24T03:04:29;22.50;39.90
38746;DHT22;24488;0.000;0.000;2023-04-24T03:06:54;22.50;39.40
38746;DHT22;24488;0.000;0.000;2023-04-24T03:09:20;22.50;39.90
38746;DHT22;24488;0.000;0.000;2023-04-24T03:11:46;22.00;39.60
38746;DHT22;24488;0.000;0.000;2023-04-24T03:14:12;22.50;39.80
38746;DHT22;24488;0.000;0.000;2023-04-24T03:16:37;22.50;39.80
38746;DHT22;24488;0.000;0.000;2023-04-24T03:19:03;22.50;39.40
38746;DHT22;24488;0.000;0.000;2023-04-24T03:21:28;22.60;39.90
38746;DHT22;24488;0.000;0.000;2023-04-24T03:23:54;22.50;39.80
38746;DHT22;24488;0.000;0.000;2023-04-24T03:26:20;22.60;39.90
38746;DHT22;24488;0.000;0.000;2023-04-24T03:28:45;22.60;39.40
38746;DHT22;24488;0.000;0.000;2023-04-24T03:31:11;22.60;39.90
38746;DHT22;24488;0.000;0.000;2023-04-24T03:33:36;22.60;39.80
38746;DHT22;24488;0.000;0.000;2023-04-24T03:36:02;22.50;39.80
38746;DHT22;24488;0.000;0.000;2023-04-24T03:38:28;22.60;39.40
38746;DHT22;24488;0.000;0.000;2023-04-24T03:40:53;22.50;39.80
38746;DHT22;24488;0.000;0.000;2023-04-24T03:43:19;22.50;39.80
38746;DHT22;24488;0.000;0.000;2023-04-24T03:45:44;22.50;39.80
38746;DHT22;24488;0.000;0.000;2023-04-24T03:48:10;22.50;39.30
38746;DHT22;24488;0.000;0.000;2023-04-24T03:50:36;22.60;39.90
38746;DHT22;24488;0.000;0.000;2023-04-24T03:53:01;22.50;39.80
38746;DHT22;24488;0.000;0.000;2023-04-24T03:55:27;22.50;39.80
38746;DHT22;24488;0.000;0.000;2023-04-24T03:57:52;22.50;39.30
38746;DHT22;24488;0.000;0.000;2023-04-24T04:00:18;22.50;39.80
38746;DHT22;24488;0.000;0.000;2023-04-24T04:02:43;22.50;39.80
38746;DHT22;24488;0.000;0.000;2023-04-24T04:05:09;22.50;39.80
38746;DHT22;24488;0.000;0.000;2023-04-24T04:07:35;22.50;39.40
38746;DHT22;24488;0.000;0.000;2023-04-24T04:10:00;22.50;39.80
38746;DHT22;24488;0.000;0.000;2023-04-24T04:12:26;22.70;39.90
38746;DHT22;24488;0.000;0.000;2023-04-24T04:14:53;22.50;39.80
38746;DHT22;24488;0.000;0.000;2023-04-24T04:17:25;22.50;39.40
38746;DHT22;24488;0.000;0.000;2023-04-24T04:19:51;22.50;39.80
38746;DHT22;24488;0.000;0.000;2023-04-24T04:22:16;22.50;39.80
38746;DHT22;24488;0.000;0.000;2023-04-24T04:24:42;22.60;39.90
38746;DHT22;24488;0.000;0.000;2023-04-24T04:27:08;22.50;39.40
38746;DHT22;24488;0.000;0.000;2023-04-24T04:29:34;22.50;39.90
38746;DHT22;24488;0.000;0.000;2023-04-24T04:32:01;22.40;39.80
38746;DHT22;24488;0.000;0.000;2023-04-24T04:34:27;22.40;39.90
38746;DHT22;24488;0.000;0.000;2023-04-24T04:36:53;22.40;39.40
38746;DHT22;24488;0.000;0.000;2023-04-24T04:39:18;22.40;39.90
38746;DHT22;24488;0.000;0.000;2023-04-24T04:41:45;22.50;40.00
38746;DHT22;24488;0.000;0.000;2023-04-24T04:44:14;22.40;39.90
38746;DHT22;24488;0.000;0.000;2023-04-24T04:46:40;22.50;40.00
38746;DHT22;24488;0.000;0.000;2023-04-24T04:49:06;22.50;39.40
38746;DHT22;24488;0.000;0.000;2023-04-24T04:51:34;22.50;39.90
38746;DHT22;24488;0.000;0.000;2023-04-24T04:53:59;22.60;39.90
38746;DHT22;24488;0.000;0.000;2023-04-24T04:56:25;22.50;39.90
38746;DHT22;24488;0.000;0.000;2023-04-24T04:58:51;22.50;39.50
38746;DHT22;24488;0.000;0.000;2023-04-24T05:01:16;22.60;40.10
38746;DHT22;24488;0.000;0.000;2023-04-24T05:03:42;22.50;39.50
38746;DHT22;24488;0.000;0.000;2023-04-24T05:06:08;22.50;40.00
38746;DHT22;24488;0.000;0.000;2023-04-24T05:08:33;22.60;40.00
38746;DHT22;24488;0.000;0.000;2023-04-24T05:10:59;22.50;40.00
38746;DHT22;24488;0.000;0.000;2023-04-24T05:13:25;22.50;39.50
38746;DHT22;24488;0.000;0.000;2023-04-24T05:15:50;22.60;40.10
38746;DHT22;24488;0.000;0.000;2023-04-24T05:18:16;22.70;40.10
38746;DHT22;24488;0.000;0.000;2023-04-24T05:20:42;22.60;40.00
38746;DHT22;24488;0.000;0.000;2023-04-24T05:23:09;22.60;39.60
38746;DHT22;24488;0.000;0.000;2023-04-24T05:25:35;22.60;40.00
38746;DHT22;24488;0.000;0.000;2023-04-24T05:28:01;22.60;40.00
38746;DHT22;24488;0.000;0.000;2023-04-24T05:30:27;22.60;40.00
38746;DHT22;24488;0.000;0.000;2023-04-24T05:32:52;22.60;39.50
38746;DHT22;24488;0.000;0.000;2023-04-24T05:35:18;22.60;40.00
38746;DHT22;24488;0.000;0.000;2023-04-24T05:37:44;22.70;40.00
38746;DHT22;24488;0.000;0.000;2023-04-24T05:40:09;22.60;40.00
38746;DHT22;24488;0.000;0.000;2023-04-24T05:42:35;22.70;39.50
38746;DHT22;24488;0.000;0.000;2023-04-24T05:45:01;22.60;40.00
38746;DHT22;24488;0.000;0.000;2023-04-24T05:47:26;22.70;40.00
38746;DHT22;24488;0.000;0.000;2023-04-24T05:49:52;22.70;40.00
38746;DHT22;24488;0.000;0.000;2023-04-24T05:52:18;22.70;39.50
38746;DHT22;24488;0.000;0.000;2023-04-24T05:54:44;22.60;40.00
38746;DHT22;24488;0.000;0.000;2023-04-24T05:57:09;22.70;40.00
38746;DHT22;24488;0.000;0.000;2023-04-24T05:59:36;22.70;39.90
38746;DHT22;24488;0.000;0.000;2023-04-24T06:02:02;22.70;39.50
38746;DHT22;24488;0.000;0.000;2023-04-24T06:04:28;22.70;39.90
38746;DHT22;24488;0.000;0.000;2023-04-24T06:06:53;22.70;39.90
38746;DHT22;24488;0.000;0.000;2023-04-24T06:09:24;22.70;39.90
38746;DHT22;24488;0.000;0.000;2023-04-24T06:11:50;22.70;39.90
38746;DHT22;24488;0.000;0.000;2023-04-24T06:14:18;22.70;39.40
38746;DHT22;24488;0.000;0.000;2023-04-24T06:16:44;22.80;40.00
38746;DHT22;24488;0.000;0.000;2023-04-24T06:19:09;22.90;39.90
38746;DHT22;24488;0.000;0.000;2023-04-24T06:21:35;22.80;39.90
38746;DHT22;24488;0.000;0.000;2023-04-24T06:24:00;22.80;39.50
38746;DHT22;24488;0.000;0.000;2023-04-24T06:26:27;22.70;39.90
38746;DHT22;24488;0.000;0.000;2023-04-24T06:28:52;22.80;39.90
38746;DHT22;24488;0.000;0.000;2023-04-24T06:31:20;22.80;39.90
38746;DHT22;24488;0.000;0.000;2023-04-24T06:33:48;22.80;39.40
38746;DHT22;24488;0.000;0.000;2023-04-24T06:36:13;22.70;39.80
38746;DHT22;24488;0.000;0.000;2023-04-24T06:38:39;22.80;39.90
38746;DHT22;24488;0.000;0.000;2023-04-24T06:41:05;22.80;39.90
38746;DHT22;24488;0.000;0.000;2023-04-24T06:43:31;22.80;39.40
38746;DHT22;24488;0.000;0.000;2023-04-24T06:45:57;22.80;39.80
38746;DHT22;24488;0.000;0.000;2023-04-24T06:48:23;22.80;39.80
38746;DHT22;24488;0.000;0.000;2023-04-24T06:50:49;22.80;39.80
38746;DHT22;24488;0.000;0.000;2023-04-24T06:53:14;22.80;39.40
38746;DHT22;24488;0.000;0.000;2023-04-24T06:55:40;22.80;39.90
38746;DHT22;24488;0.000;0.000;2023-04-24T06:58:06;22.80;39.90
38746;DHT22;24488;0.000;0.000;2023-04-24T07:00:31;22.80;39.80
38746;DHT22;24488;0.000;0.000;2023-04-24T07:02:57;22.80;39.40
38746;DHT22;24488;0.000;0.000;2023-04-24T07:05:22;22.80;39.80
38746;DHT22;24488;0.000;0.000;2023-04-24T07:07:48;22.80;39.80
38746;DHT22;24488;0.000;0.000;2023-04-24T07:10:14;22.80;39.80
38746;DHT22;24488;0.000;0.000;2023-04-24T07:12:40;22.80;39.30
38746;DHT22;24488;0.000;0.000;2023-04-24T07:15:06;22.80;39.80
38746;DHT22;24488;0.000;0.000;2023-04-24T07:17:33;22.80;39.80
38746;DHT22;24488;0.000;0.000;2023-04-24T07:20:00;22.80;39.80
38746;DHT22;24488;0.000;0.000;2023-04-24T07:22:25;22.80;39.30
38746;DHT22;24488;0.000;0.000;2023-04-24T07:24:51;22.80;39.80
38746;DHT22;24488;0.000;0.000;2023-04-24T07:27:16;22.80;39.80
38746;DHT22;24488;0.000;0.000;2023-04-24T07:29:42;22.80;39.80
38746;DHT22;24488;0.000;0.000;2023-04-24T07:32:08;22.80;39.30
38746;DHT22;24488;0.000;0.000;2023-04-24T07:34:34;22.80;39.80
38746;DHT22;24488;0.000;0.000;2023-04-24T07:37:00;22.70;39.70
38746;DHT22;24488;0.000;0.000;2023-04-24T07:39:25;22.80;39.80
38746;DHT22;24488;0.000;0.000;2023-04-24T07:41:51;22.80;39.80
38746;DHT22;24488;0.000;0.000;2023-04-24T07:44:17;22.80;39.30
38746;DHT22;24488;0.000;0.000;2023-04-24T07:46:42;22.80;39.70
38746;DHT22;24488;0.000;0.000;2023-04-24T07:49:08;22.80;39.70
38746;DHT22;24488;0.000;0.000;2023-04-24T07:51:34;22.80;39.70
38746;DHT22;24488;0.000;0.000;2023-04-24T07:54:04;22.80;39.20
38746;DHT22;24488;0.000;0.000;2023-04-24T07:56:32;22.80;40.30
38746;DHT22;24488;0.000;0.000;2023-04-24T07:58:58;22.80;39.70
38746;DHT22;24488;0.000;0.000;2023-04-24T08:01:24;22.80;39.70
38746;DHT22;24488;0.000;0.000;2023-04-24T08:03:50;22.80;39.30
38746;DHT22;24488;0.000;0.000;2023-04-24T08:06:16;22.80;39.80
38746;DHT22;24488;0.000;0.000;2023-04-24T08:08:42;22.80;39.70
38746;DHT22;24488;0.000;0.000;2023-04-24T08:11:07;22.80;39.80
38746;DHT22;24488;0.000;0.000;2023-04-24T08:13:33;22.80;39.30
38746;DHT22;24488;0.000;0.000;2023-04-24T08:15:58;22.80;39.80
38746;DHT22;24488;0.000;0.000;2023-04-24T08:18:24;22.80;39.80
38746;DHT22;24488;0.000;0.000;2023-04-24T08:20:49;22.80;39.80
38746;DHT22;24488;0.000;0.000;2023-04-24T08:23:15;22.80;39.30
38746;DHT22;24488;0.000;0.000;2023-04-24T08:25:40;22.80;39.80
38746;DHT22;24488;0.000;0.000;2023-04-24T08:28:06;22.80;39.70
38746;DHT22;24488;0.000;0.000;2023-04-24T08:30:34;22.80;39.70
38746;DHT22;24488;0.000;0.000;2023-04-24T08:33:00;22.80;39.20
38746;DHT22;24488;0.000;0.000;2023-04-24T08:35:25;22.80;39.70
38746;DHT22;24488;0.000;0.000;2023-04-24T08:37:52;22.80;39.70
38746;DHT22;24488;0.000;0.000;2023-04-24T08:40:18;22.80;39.70
38746;DHT22;24488;0.000;0.000;2023-04-24T08:42:48;22.90;39.30
38746;DHT22;24488;0.000;0.000;2023-04-24T08:45:14;22.80;39.70
38746;DHT22;24488;0.000;0.000;2023-04-24T08:47:41;22.80;39.70
38746;DHT22;24488;0.000;0.000;2023-04-24T08:50:07;22.90;39.70
38746;DHT22;24488;0.000;0.000;2023-04-24T08:52:33;22.90;39.30
38746;DHT22;24488;0.000;0.000;2023-04-24T08:55:00;22.90;39.70
38746;DHT22;24488;0.000;0.000;2023-04-24T08:57:26;22.90;39.80
38746;DHT22;24488;0.000;0.000;2023-04-24T08:59:53;22.90;39.70
38746;DHT22;24488;0.000;0.000;2023-04-24T09:02:19;22.90;39.30
38746;DHT22;24488;0.000;0.000;2023-04-24T09:04:46;22.90;39.70
38746;DHT22;24488;0.000;0.000;2023-04-24T09:07:12;22.90;39.70
38746;DHT22;24488;0.000;0.000;2023-04-24T09:09:39;22.90;39.70
38746;DHT22;24488;0.000;0.000;2023-04-24T09:12:05;22.90;39.30
38746;DHT22;24488;0.000;0.000;2023-04-24T09:14:31;22.90;39.70
38746;DHT22;24488;0.000;0.000;2023-04-24T09:16:58;22.90;39.70
38746;DHT22;24488;0.000;0.000;2023-04-24T09:19:23;22.90;39.70
38746;DHT22;24488;0.000;0.000;2023-04-24T09:21:49;22.90;39.70
38746;DHT22;24488;0.000;0.000;2023-04-24T09:24:19;22.90;39.20
38746;DHT22;24488;0.000;0.000;2023-04-24T09:26:48;22.90;39.70
38746;DHT22;24488;0.000;0.000;2023-04-24T09:29:15;22.90;39.70
38746;DHT22;24488;0.000;0.000;2023-04-24T09:31:42;22.90;39.70
38746;DHT22;24488;0.000;0.000;2023-04-24T09:34:07;22.90;39.20
38746;DHT22;24488;0.000;0.000;2023-04-24T09:36:37;22.90;39.70
38746;DHT22;24488;0.000;0.000;2023-04-24T09:39:04;22.90;39.70
38746;DHT22;24488;0.000;0.000;2023-04-24T09:41:33;22.90;39.70
38746;DHT22;24488;0.000;0.000;2023-04-24T09:44:10;22.90;39.20
38746;DHT22;24488;0.000;0.000;2023-04-24T09:46:41;22.90;39.70
38746;DHT22;24488;0.000;0.000;2023-04-24T09:49:12;22.90;39.70
38746;DHT22;24488;0.000;0.000;2023-04-24T09:51:40;22.90;39.70
38746;DHT22;24488;0.000;0.000;2023-04-24T09:54:15;22.90;39.20
38746;DHT22;24488;0.000;0.000;2023-04-24T09:56:43;22.90;39.70
38746;DHT22;24488;0.000;0.000;2023-04-24T09:59:10;22.90;39.70
38746;DHT22;24488;0.000;0.000;2023-04-24T10:01:36;22.90;39.70
38746;DHT22;24488;0.000;0.000;2023-04-24T10:04:03;22.90;39.20
38746;DHT22;24488;0.000;0.000;2023-04-24T10:06:29;22.90;39.70
38746;DHT22;24488;0.000;0.000;2023-04-24T10:08:57;22.90;39.70
38746;DHT22;24488;0.000;0.000;2023-04-24T10:11:24;22.90;39.70
38746;DHT22;24488;0.000;0.000;2023-04-24T10:13:51;22.90;39.20
38746;DHT22;24488;0.000;0.000;2023-04-24T10:16:17;22.90;39.70
38746;DHT22;24488;0.000;0.000;2023-04-24T10:18:44;22.90;39.70
38746;DHT22;24488;0.000;0.000;2023-04-24T10:21:09;22.90;39.60
38746;DHT22;24488;0.000;0.000;2023-04-24T10:23:35;22.90;39.20
38746;DHT22;24488;0.000;0.000;2023-04-24T10:26:01;22.90;39.70
38746;DHT22;24488;0.000;0.000;2023-04-24T10:28:27;23.00;39.70
38746;DHT22;24488;0.000;0.000;2023-04-24T10:30:53;22.90;39.70
38746;DHT22;24488;0.000;0.000;2023-04-24T10:33:20;23.60;39.50
38746;DHT22;24488;0.000;0.000;2023-04-24T10:35:47;22.90;39.70
38746;DHT22;24488;0.000;0.000;2023-04-24T10:38:15;22.90;39.70
38746;DHT22;24488;0.000;0.000;2023-04-24T10:40:42;22.90;39.70
38746;DHT22;24488;0.000;0.000;2023-04-24T10:43:09;22.90;39.20
38746;DHT22;24488;0.000;0.000;2023-04-24T10:45:37;22.90;39.70
38746;DHT22;24488;0.000;0.000;2023-04-24T10:48:09;22.90;39.70
38746;DHT22;24488;0.000;0.000;2023-04-24T10:50:43;22.90;39.60
38746;DHT22;24488;0.000;0.000;2023-04-24T10:53:13;22.90;39.20
38746;DHT22;24488;0.000;0.000;2023-04-24T10:55:42;22.90;39.70
38746;DHT22;24488;0.000;0.000;2023-04-24T10:58:09;22.90;39.60
38746;DHT22;24488;0.000;0.000;2023-04-24T11:00:39;22.90;39.60
38746;DHT22;24488;0.000;0.000;2023-04-24T11:03:50;22.90;39.10
38746;DHT22;24488;0.000;0.000;2023-04-24T11:05:56;22.90;40.20
38746;DHT22;24488;0.000;0.000;2023-04-24T11:08:30;23.00;39.70
38746;DHT22;24488;0.000;0.000;2023-04-24T11:11:02;22.90;39.60
38746;DHT22;24488;0.000;0.000;2023-04-24T11:21:46;22.90;39.60
38746;DHT22;24488;0.000;0.000;2023-04-24T11:29:39;22.90;39.60
38746;DHT22;24488;0.000;0.000;2023-04-24T11:32:23;23.00;39.20
38746;DHT22;24488;0.000;0.000;2023-04-24T11:34:57;23.00;39.70
38746;DHT22;24488;0.000;0.000;2023-04-24T11:37:24;22.90;39.60
38746;DHT22;24488;0.000;0.000;2023-04-24T11:39:55;23.00;39.60
38746;DHT22;24488;0.000;0.000;2023-04-24T11:42:22;23.00;39.20
38746;DHT22;24488;0.000;0.000;2023-04-24T11:44:54;23.00;39.60
38746;DHT22;24488;0.000;0.000;2023-04-24T11:47:29;23.00;39.60
38746;DHT22;24488;0.000;0.000;2023-04-24T11:49:55;23.00;39.60
38746;DHT22;24488;0.000;0.000;2023-04-24T11:52:21;23.00;39.20
38746;DHT22;24488;0.000;0.000;2023-04-24T11:54:47;23.00;39.90
38746;DHT22;24488;0.000;0.000;2023-04-24T11:57:14;23.00;39.60
38746;DHT22;24488;0.000;0.000;2023-04-24T11:59:40;23.00;39.60
38746;DHT22;24488;0.000;0.000;2023-04-24T12:02:05;23.00;39.20
38746;DHT22;24488;0.000;0.000;2023-04-24T12:04:38;22.90;39.60
38746;DHT22;24488;0.000;0.000;2023-04-24T12:07:05;23.00;39.60
38746;DHT22;24488;0.000;0.000;2023-04-24T12:09:41;23.00;39.60
38746;DHT22;24488;0.000;0.000;2023-04-24T12:12:08;23.00;39.20
38746;DHT22;24488;0.000;0.000;2023-04-24T12:14:41;23.00;39.70
38746;DHT22;24488;0.000;0.000;2023-04-24T12:17:08;23.00;39.60
38746;DHT22;24488;0.000;0.000;2023-04-24T12:19:33;23.00;39.60
38746;DHT22;24488;0.000;0.000;2023-04-24T12:21:59;23.00;39.10
38746;DHT22;24488;0.000;0.000;2023-04-24T12:24:30;23.00;39.60
38746;DHT22;24488;0.000;0.000;2023-04-24T12:26:56;23.00;39.60
38746;DHT22;24488;0.000;0.000;2023-04-24T12:29:23;23.00;39.60
38746;DHT22;24488;0.000;0.000;2023-04-24T12:31:49;23.00;39.60
38746;DHT22;24488;0.000;0.000;2023-04-24T12:34:19;23.00;39.10
38746;DHT22;24488;0.000;0.000;2023-04-24T12:36:46;23.00;39.60
38746;DHT22;24488;0.000;0.000;2023-04-24T12:39:15;23.00;39.60
38746;DHT22;24488;0.000;0.000;2023-04-24T12:41:50;23.00;39.60
38746;DHT22;24488;0.000;0.000;2023-04-24T12:44:16;23.00;39.10
38746;DHT22;24488;0.000;0.000;2023-04-24T12:46:42;23.00;39.60
38746;DHT22;24488;0.000;0.000;2023-04-24T12:49:07;23.00;39.60
38746;DHT22;24488;0.000;0.000;2023-04-24T12:51:33;23.00;39.60
38746;DHT22;24488;0.000;0.000;2023-04-24T12:53:58;23.00;39.20
38746;DHT22;24488;0.000;0.000;2023-04-24T12:56:24;23.10;39.70
38746;DHT22;24488;0.000;0.000;2023-04-24T12:58:49;23.10;39.70
38746;DHT22;24488;0.000;0.000;2023-04-24T13:01:17;23.00;39.60
38746;DHT22;24488;0.000;0.000;2023-04-24T13:03:42;23.00;39.20
38746;DHT22;24488;0.000;0.000;2023-04-24T13:06:08;23.00;39.60
38746;DHT22;24488;0.000;0.000;2023-04-24T13:08:34;23.00;39.60
38746;DHT22;24488;0.000;0.000;2023-04-24T13:11:00;23.00;39.60
38746;DHT22;24488;0.000;0.000;2023-04-24T13:13:25;23.00;39.10
38746;DHT22;24488;0.000;0.000;2023-04-24T13:15:51;23.00;39.60
38746;DHT22;24488;0.000;0.000;2023-04-24T13:18:16;23.00;39.60
38746;DHT22;24488;0.000;0.000;2023-04-24T13:20:42;23.00;39.60
38746;DHT22;24488;0.000;0.000;2023-04-24T13:23:07;23.00;39.10
38746;DHT22;24488;0.000;0.000;2023-04-24T13:25:34;23.00;39.60
38746;DHT22;24488;0.000;0.000;2023-04-24T13:28:00;23.10;39.70
38746;DHT22;24488;0.000;0.000;2023-04-24T13:30:26;23.10;39.70
38746;DHT22;24488;0.000;0.000;2023-04-24T13:32:51;23.30;39.30
38746;DHT22;24488;0.000;0.000;2023-04-24T13:35:17;23.00;39.60
38746;DHT22;24488;0.000;0.000;2023-04-24T13:37:42;23.00;39.60
38746;DHT22;24488;0.000;0.000;2023-04-24T13:40:08;23.10;39.60
38746;DHT22;24488;0.000;0.000;2023-04-24T13:42:34;23.00;39.10
38746;DHT22;24488;0.000;0.000;2023-04-24T13:45:00;23.00;39.60
38746;DHT22;24488;0.000;0.000;2023-04-24T13:47:25;23.00;39.60
38746;DHT22;24488;0.000;0.000;2023-04-24T13:49:52;23.00;39.60
38746;DHT22;24488;0.000;0.000;2023-04-24T13:52:19;23.00;39.10
38746;DHT22;24488;0.000;0.000;2023-04-24T13:54:45;23.00;39.60
38746;DHT22;24488;0.000;0.000;2023-04-24T13:57:10;22.90;39.60
38746;DHT22;24488;0.000;0.000;2023-04-24T13:59:36;23.00;39.60
38746;DHT22;24488;0.000;0.000;2023-04-24T14:02:02;23.00;39.10
38746;DHT22;24488;0.000;0.000;2023-04-24T14:04:27;23.00;39.60
38746;DHT22;24488;0.000;0.000;2023-04-24T14:06:53;23.00;39.60
38746;DHT22;24488;0.000;0.000;2023-04-24T14:09:19;23.00;39.60
38746;DHT22;24488;0.000;0.000;2023-04-24T14:11:44;23.10;39.60
38746;DHT22;24488;0.000;0.000;2023-04-24T14:14:10;23.00;39.10
38746;DHT22;24488;0.000;0.000;2023-04-24T14:16:36;23.00;39.60
38746;DHT22;24488;0.000;0.000;2023-04-24T14:19:02;23.00;39.60
38746;DHT22;24488;0.000;0.000;2023-04-24T14:21:27;23.00;39.50
38746;DHT22;24488;0.000;0.000;2023-04-24T14:23:53;23.00;39.10
38746;DHT22;24488;0.000;0.000;2023-04-24T14:26:19;23.00;39.60
38746;DHT22;24488;0.000;0.000;2023-04-24T14:28:44;23.00;39.60
38746;DHT22;24488;0.000;0.000;2023-04-24T14:31:10;23.00;39.60
38746;DHT22;24488;0.000;0.000;2023-04-24T14:33:36;23.00;39.10
38746;DHT22;24488;0.000;0.000;2023-04-24T14:36:01;23.00;39.60
38746;DHT22;24488;0.000;0.000;2023-04-24T14:38:28;23.00;39.60
38746;DHT22;24488;0.000;0.000;2023-04-24T14:40:54;23.00;39.50
38746;DHT22;24488;0.000;0.000;2023-04-24T14:43:20;23.00;39.10
38746;DHT22;24488;0.000;0.000;2023-04-24T14:45:45;23.00;39.60
38746;DHT22;24488;0.000;0.000;2023-04-24T14:48:11;23.00;39.60
38746;DHT22;24488;0.000;0.000;2023-04-24T14:50:36;23.10;39.60
38746;DHT22;24488;0.000;0.000;2023-04-24T14:53:02;23.00;39.10
38746;DHT22;24488;0.000;0.000;2023-04-24T14:55:28;23.00;39.60
38746;DHT22;24488;0.000;0.000;2023-04-24T14:57:54;23.00;39.60
38746;DHT22;24488;0.000;0.000;2023-04-24T15:00:20;23.00;39.60
38746;DHT22;24488;0.000;0.000;2023-04-24T15:02:48;23.00;39.10
38746;DHT22;24488;0.000;0.000;2023-04-24T15:05:14;23.00;39.60
38746;DHT22;24488;0.000;0.000;2023-04-24T15:07:39;23.10;39.60
38746;DHT22;24488;0.000;0.000;2023-04-24T15:10:07;23.10;39.70
38746;DHT22;24488;0.000;0.000;2023-04-24T15:12:33;23.00;39.10
38746;DHT22;24488;0.000;0.000;2023-04-24T15:14:58;23.10;39.70
38746;DHT22;24488;0.000;0.000;2023-04-24T15:17:25;23.10;39.60
38746;DHT22;24488;0.000;0.000;2023-04-24T15:19:51;23.00;39.60
38746;DHT22;24488;0.000;0.000;2023-04-24T15:22:17;23.10;39.10
38746;DHT22;24488;0.000;0.000;2023-04-24T15:24:42;23.10;39.60
38746;DHT22;24488;0.000;0.000;2023-04-24T15:27:09;23.10;39.60
38746;DHT22;24488;0.000;0.000;2023-04-24T15:29:35;23.00;39.50
38746;DHT22;24488;0.000;0.000;2023-04-24T15:32:00;23.10;39.10
38746;DHT22;24488;0.000;0.000;2023-04-24T15:34:26;23.10;39.60
38746;DHT22;24488;0.000;0.000;2023-04-24T15:36:52;23.10;39.60
38746;DHT22;24488;0.000;0.000;2023-04-24T15:39:19;23.10;39.60
38746;DHT22;24488;0.000;0.000;2023-04-24T15:41:47;23.10;39.60
38746;DHT22;24488;0.000;0.000;2023-04-24T15:44:12;23.00;39.10
38746;DHT22;24488;0.000;0.000;2023-04-24T15:46:38;23.20;39.70
38746;DHT22;24488;0.000;0.000;2023-04-24T15:49:03;23.10;39.60
38746;DHT22;24488;0.000;0.000;2023-04-24T15:51:29;23.10;39.60
38746;DHT22;24488;0.000;0.000;2023-04-24T15:53:55;23.00;39.10